EIDW - Dublin
Distance from station: E 5mi, 14km
Updated: 10/20/2017 11:30pm
Mostly Cloudy
Mostly Cloudy
 Wind from SSE
Wind: SSE 12 mph , 19 km/h
Temperature: 54°F , 12°C
Dew Point: 48°F , 9°C
Humidity: 82%
Barometer: 28.97 inHg , 981 hPa
Clouds: Mostly Cloudy
Visibility: 6 miles , 10 km
Cloud details: Few Clouds 1500 ft
Partly Cloudy 2500 ft
Mostly Cloudy 3100 ft
2017/10/21 06:30 EIDW 210630Z 15010KT 9999 FEW015 SCT025 BKN031 12/09 Q0981 NOSIG